createdAt,value
2022-10-07T00:02:44.489Z,102359.91
2022-10-07T00:05:47.228Z,102356.38
2022-10-07T00:08:53.008Z,102359.88
2022-10-07T00:11:55.607Z,102353.59
2022-10-07T00:14:58.130Z,102354.84
2022-10-07T00:18:00.649Z,102347.81
2022-10-07T00:21:04.779Z,102348.00
2022-10-07T00:24:10.336Z,102338.91
2022-10-07T00:27:12.873Z,102342.19
2022-10-07T00:30:15.426Z,102344.47
2022-10-07T00:33:17.943Z,102334.59
2022-10-07T00:36:23.626Z,102339.09
2022-10-07T00:39:27.511Z,102343.63
2022-10-07T00:42:30.872Z,102332.41
2022-10-07T00:45:40.572Z,102334.28
2022-10-07T00:48:44.722Z,102329.97
2022-10-07T00:51:51.815Z,102318.41
2022-10-07T00:54:58.653Z,102314.00
2022-10-07T00:58:06.532Z,102314.28
2022-10-07T01:01:09.796Z,102306.19
2022-10-07T01:04:14.600Z,102310.84
2022-10-07T01:07:18.187Z,102306.47
2022-10-07T01:10:24.298Z,102305.59
2022-10-07T01:13:33.085Z,102305.72
2022-10-07T01:16:44.304Z,102300.41
2022-10-07T01:20:03.825Z,102299.66
2022-10-07T01:23:27.969Z,102291.63
2022-10-07T01:27:01.063Z,102288.22
2022-10-07T01:30:07.008Z,102278.44
2022-10-07T01:33:14.944Z,102274.97
2022-10-07T01:36:21.357Z,102267.28
2022-10-07T01:39:28.466Z,102267.13
2022-10-07T01:42:33.318Z,102258.31
2022-10-07T01:45:40.022Z,102258.56
2022-10-07T01:48:42.538Z,102265.00
2022-10-07T01:51:45.434Z,102259.41
2022-10-07T01:55:15.336Z,102249.66
2022-10-07T01:58:33.312Z,102245.94
2022-10-07T02:01:46.970Z,102237.31
2022-10-07T02:04:59.679Z,102239.09
2022-10-07T02:08:17.310Z,102244.25
2022-10-07T02:11:22.814Z,102241.44
2022-10-07T02:14:32.270Z,102230.72
2022-10-07T02:17:39.376Z,102226.28
2022-10-07T02:20:45.497Z,102221.88
2022-10-07T02:23:50.236Z,102215.63
2022-10-07T02:26:55.401Z,102219.19
2022-10-07T02:30:07.642Z,102205.19
2022-10-07T02:33:11.374Z,102199.16
2022-10-07T02:36:19.314Z,102202.69
2022-10-07T02:39:22.455Z,102201.69
2022-10-07T02:42:31.286Z,102199.09
2022-10-07T02:45:44.254Z,102196.31
2022-10-07T02:48:53.698Z,102198.25
2022-10-07T02:51:59.960Z,102188.44
2022-10-07T02:55:06.138Z,102185.78
2022-10-07T02:58:10.003Z,102184.81
2022-10-07T03:01:17.682Z,102176.28
2022-10-07T03:04:21.422Z,102174.59
2022-10-07T03:07:24.984Z,102169.19
2022-10-07T03:10:28.961Z,102164.06
2022-10-07T03:13:32.104Z,102169.19
2022-10-07T03:16:35.956Z,102164.69
2022-10-07T03:19:38.854Z,102172.69
2022-10-07T03:22:42.413Z,102160.47
2022-10-07T03:25:48.977Z,102156.91
2022-10-07T03:28:51.433Z,102164.16
2022-10-07T03:31:55.381Z,102157.94
2022-10-07T03:34:57.900Z,102149.97
2022-10-07T03:38:01.000Z,102157.00
2022-10-07T03:41:04.467Z,102156.16
2022-10-07T03:44:07.061Z,102147.63
2022-10-07T03:47:11.437Z,102141.13
2022-10-07T03:50:14.510Z,102142.88
2022-10-07T03:53:17.096Z,102132.38
2022-10-07T03:56:19.573Z,102128.94
2022-10-07T03:59:22.249Z,102131.66
2022-10-07T04:02:26.095Z,102114.81
2022-10-07T04:05:29.063Z,102122.13
2022-10-07T04:08:32.878Z,102121.84
2022-10-07T04:11:35.485Z,102116.53
2022-10-07T04:14:39.095Z,102122.63
2022-10-07T04:17:43.762Z,102115.66
2022-10-07T04:20:46.381Z,102109.72
2022-10-07T04:23:48.908Z,102118.44
2022-10-07T04:26:51.397Z,102123.53
2022-10-07T04:29:53.902Z,102123.00
2022-10-07T04:32:57.731Z,102118.56
2022-10-07T04:36:05.483Z,102114.03
2022-10-07T04:39:08.083Z,102111.47
2022-10-07T04:42:30.949Z,102108.00
2022-10-07T04:45:34.032Z,102106.03
2022-10-07T04:48:37.993Z,102105.25
2022-10-07T04:51:40.480Z,102103.59
2022-10-07T04:54:42.959Z,102099.28
2022-10-07T04:57:45.687Z,102099.19
2022-10-07T05:00:50.548Z,102097.53
2022-10-07T05:03:54.474Z,102092.22
2022-10-07T05:06:57.000Z,102092.28
2022-10-07T05:09:59.529Z,102084.16
2022-10-07T05:13:02.199Z,102081.47
2022-10-07T05:16:04.832Z,102084.06
2022-10-07T05:19:10.452Z,102076.97
2022-10-07T05:22:12.936Z,102086.81
2022-10-07T05:25:15.933Z,102085.94
2022-10-07T05:28:18.673Z,102085.03
2022-10-07T05:31:21.939Z,102082.47
2022-10-07T05:34:25.762Z,102081.47
2022-10-07T05:37:28.350Z,102087.59
2022-10-07T05:40:30.847Z,102077.84
2022-10-07T05:43:36.382Z,102083.25
2022-10-07T05:46:38.975Z,102076.88
2022-10-07T05:49:43.172Z,102073.47
2022-10-07T05:52:45.648Z,102066.34
2022-10-07T05:55:48.142Z,102071.75
2022-10-07T05:58:52.454Z,102068.94
2022-10-07T06:02:00.080Z,102063.81
2022-10-07T06:05:04.072Z,102068.19
2022-10-07T06:08:06.557Z,102072.34
2022-10-07T06:11:30.047Z,102064.97
2022-10-07T06:14:32.562Z,102069.47
2022-10-07T06:17:35.043Z,102061.75
2022-10-07T06:20:38.869Z,102058.09
2022-10-07T06:23:41.346Z,102067.84
2022-10-07T06:26:43.880Z,102068.84
2022-10-07T06:29:46.352Z,102056.22
2022-10-07T06:32:48.834Z,102051.13
2022-10-07T06:35:57.260Z,102056.34
2022-10-07T06:39:02.435Z,102059.66
2022-10-07T06:42:05.083Z,102064.59
2022-10-07T06:45:09.214Z,102060.78
2022-10-07T06:48:12.509Z,102066.97
2022-10-07T06:51:17.973Z,102065.28
2022-10-07T06:54:20.462Z,102060.66
2022-10-07T07:00:48.866Z,102060.97
2022-10-07T07:03:51.380Z,102051.88
2022-10-07T07:06:55.196Z,102051.63
2022-10-07T07:09:57.838Z,102057.44
2022-10-07T07:16:04.103Z,102040.25
2022-10-07T07:19:08.651Z,102042.03
2022-10-07T07:22:12.743Z,102045.81
2022-10-07T07:25:15.333Z,102032.94
2022-10-07T07:28:18.701Z,102036.97
2022-10-07T07:31:21.519Z,102034.88
2022-10-07T07:34:24.059Z,102036.56
2022-10-07T07:37:29.511Z,102042.44
2022-10-07T07:40:32.018Z,102043.84
2022-10-07T07:43:34.542Z,102038.59
2022-10-07T07:46:39.689Z,102031.69
2022-10-07T07:49:42.151Z,102038.81
2022-10-07T07:52:46.005Z,102038.53
2022-10-07T07:55:53.484Z,102035.22
2022-10-07T07:58:56.895Z,102030.66
2022-10-07T08:01:59.806Z,102025.19
2022-10-07T08:05:02.356Z,102024.84
2022-10-07T08:08:06.167Z,102018.63
2022-10-07T08:11:09.274Z,102017.94
2022-10-07T08:14:12.790Z,102013.91
2022-10-07T08:17:15.294Z,102010.84
2022-10-07T08:20:17.989Z,102005.38
2022-10-07T08:23:22.031Z,102001.75
2022-10-07T08:26:24.623Z,102005.16
2022-10-07T08:29:27.313Z,102004.03
2022-10-07T08:32:30.988Z,101999.41
2022-10-07T08:35:34.523Z,101995.66
2022-10-07T08:38:40.344Z,102003.44
2022-10-07T08:41:51.986Z,101997.59
2022-10-07T08:44:54.830Z,101990.97
2022-10-07T08:47:59.643Z,101986.09
2022-10-07T08:51:09.818Z,101978.81
2022-10-07T08:54:17.162Z,101974.41
2022-10-07T08:57:29.586Z,101974.25
2022-10-07T09:00:41.808Z,101965.72
2022-10-07T09:03:51.917Z,101963.78
2022-10-07T09:07:00.503Z,101957.22
2022-10-07T09:10:19.018Z,101954.69
2022-10-07T09:13:26.050Z,101951.94
2022-10-07T09:16:33.094Z,101943.31
2022-10-07T09:19:41.050Z,101945.00
2022-10-07T09:22:51.065Z,101938.44
2022-10-07T09:25:55.210Z,101934.84
2022-10-07T09:28:59.570Z,101941.50
2022-10-07T09:32:02.052Z,101925.44
2022-10-07T09:35:06.013Z,101926.75
2022-10-07T09:38:09.254Z,101919.13
2022-10-07T09:41:19.613Z,101910.75
2022-10-07T09:44:27.266Z,101910.97
2022-10-07T09:47:36.007Z,101906.22
2022-10-07T09:50:41.225Z,101897.88
2022-10-07T09:53:58.809Z,101902.72
2022-10-07T09:57:05.234Z,101893.78
2022-10-07T10:00:26.355Z,101899.81
2022-10-07T10:03:33.266Z,101889.50
2022-10-07T10:06:35.946Z,101893.09
2022-10-07T10:09:38.494Z,101882.59
2022-10-07T10:12:49.352Z,101892.41
2022-10-07T10:15:52.184Z,101871.91
2022-10-07T10:18:56.558Z,101871.66
2022-10-07T10:21:59.350Z,101868.84
2022-10-07T10:25:19.746Z,101875.59
2022-10-07T10:28:40.081Z,101870.25
2022-10-07T10:32:03.213Z,101862.81
2022-10-07T10:35:14.731Z,101856.75
2022-10-07T10:38:29.952Z,101850.03
2022-10-07T10:41:39.934Z,101840.84
2022-10-07T10:44:56.003Z,101834.69
2022-10-07T10:48:19.618Z,101832.56
2022-10-07T10:51:38.227Z,101827.00
2022-10-07T10:54:51.371Z,101822.25
2022-10-07T10:58:10.263Z,101818.75
2022-10-07T11:01:24.822Z,101827.41
2022-10-07T11:04:39.474Z,101808.31
2022-10-07T11:07:46.552Z,101812.59
2022-10-07T11:10:55.216Z,101797.72
2022-10-07T11:14:01.766Z,101790.25
2022-10-07T11:17:07.639Z,101786.25
2022-10-07T11:20:18.122Z,101778.69
2022-10-07T11:23:24.651Z,101770.47
2022-10-07T11:26:34.759Z,101770.16
2022-10-07T11:29:44.203Z,101764.88
2022-10-07T11:32:55.867Z,101761.84
2022-10-07T11:36:05.056Z,101754.13
2022-10-07T11:39:09.525Z,101771.63
2022-10-07T11:42:19.546Z,101759.63
2022-10-07T11:45:26.405Z,101748.38
2022-10-07T11:48:39.722Z,101737.28
2022-10-07T11:51:54.224Z,101742.47
2022-10-07T11:55:03.740Z,101729.91
2022-10-07T11:58:06.663Z,101718.72
2022-10-07T12:01:32.410Z,101714.25
2022-10-07T12:04:39.914Z,101716.88
2022-10-07T12:07:59.215Z,101713.69
2022-10-07T12:11:45.317Z,101720.03
2022-10-07T12:15:00.190Z,101707.09
2022-10-07T12:18:27.587Z,101697.16
2022-10-07T12:21:33.001Z,101703.13
2022-10-07T12:24:37.306Z,101703.09
2022-10-07T12:27:47.226Z,101698.97
2022-10-07T12:30:52.012Z,101690.81
2022-10-07T12:33:58.434Z,101684.47
2022-10-07T12:37:34.174Z,101677.94
2022-10-07T12:40:39.357Z,101666.78
2022-10-07T12:43:51.000Z,101664.59
2022-10-07T12:46:56.788Z,101653.56
2022-10-07T12:50:04.663Z,101658.16
2022-10-07T12:53:07.168Z,101650.06
2022-10-07T12:56:19.486Z,101646.56
2022-10-07T12:59:51.070Z,101645.22
2022-10-07T13:03:26.881Z,101635.91
2022-10-07T13:07:02.679Z,101628.19
2022-10-07T13:10:47.050Z,101627.13
2022-10-07T13:13:58.985Z,101621.75
2022-10-07T13:17:15.254Z,101614.66
2022-10-07T13:20:39.222Z,101614.63
2022-10-07T13:23:49.178Z,101604.69
2022-10-07T13:26:52.175Z,101605.97
2022-10-07T13:29:57.401Z,101604.94
2022-10-07T13:33:15.565Z,101593.69
2022-10-07T13:36:22.407Z,101594.41
2022-10-07T13:39:25.740Z,101588.56
2022-10-07T13:42:30.862Z,101584.94
2022-10-07T13:45:44.945Z,101582.50
2022-10-07T13:48:48.270Z,101578.41
2022-10-07T13:51:55.477Z,101580.88
2022-10-07T13:54:58.719Z,101577.69
2022-10-07T13:58:04.330Z,101572.78
2022-10-07T14:01:08.723Z,101564.66
2022-10-07T14:04:24.887Z,101567.03
2022-10-07T14:07:29.076Z,101555.94
2022-10-07T14:10:32.354Z,101558.84
2022-10-07T14:13:37.785Z,101551.41
2022-10-07T14:16:41.707Z,101547.28
2022-10-07T14:19:44.592Z,101536.78
2022-10-07T14:22:51.006Z,101533.31
2022-10-07T14:25:56.099Z,101531.25
2022-10-07T14:28:58.588Z,101526.94
2022-10-07T14:32:30.066Z,101523.72
2022-10-07T14:35:33.927Z,101515.28
2022-10-07T14:38:38.055Z,101512.16
2022-10-07T14:41:40.553Z,101520.44
2022-10-07T14:44:43.926Z,101512.16
2022-10-07T14:47:47.858Z,101509.13
2022-10-07T14:50:51.674Z,101499.69
2022-10-07T14:53:57.752Z,101503.06
2022-10-07T14:57:00.245Z,101502.31
2022-10-07T15:00:03.030Z,101504.78
2022-10-07T15:03:06.969Z,101496.66
2022-10-07T15:06:09.440Z,101492.88
2022-10-07T15:09:13.766Z,101477.53
2022-10-07T15:12:16.890Z,101480.16
2022-10-07T15:15:19.678Z,101475.13
2022-10-07T15:18:23.737Z,101466.75
2022-10-07T15:21:26.310Z,101466.75
2022-10-07T15:24:28.996Z,101460.84
2022-10-07T15:27:32.039Z,101459.19
2022-10-07T15:30:39.271Z,101454.19
2022-10-07T15:33:44.277Z,101456.59
2022-10-07T15:36:47.914Z,101441.19
2022-10-07T15:39:51.289Z,101433.25
2022-10-07T15:42:53.785Z,101442.47
2022-10-07T15:45:58.814Z,101441.84
2022-10-07T15:49:03.709Z,101442.47
2022-10-07T15:52:06.649Z,101441.34
2022-10-07T15:55:09.705Z,101432.34
2022-10-07T15:58:12.193Z,101426.78
2022-10-07T16:01:15.353Z,101430.28
2022-10-07T16:04:20.168Z,101435.97
2022-10-07T16:07:23.876Z,101439.84
2022-10-07T16:10:26.409Z,101436.34
2022-10-07T16:13:29.389Z,101438.63
2022-10-07T16:16:33.106Z,101442.81
2022-10-07T16:19:36.959Z,101442.41
2022-10-07T16:22:39.438Z,101437.47
2022-10-07T16:25:41.922Z,101437.00
2022-10-07T16:29:03.566Z,101442.16
2022-10-07T16:32:10.446Z,101442.47
2022-10-07T16:35:14.273Z,101433.41
2022-10-07T16:38:16.759Z,101434.97
2022-10-07T16:41:20.282Z,101428.13
2022-10-07T16:44:23.616Z,101432.00
2022-10-07T16:47:26.104Z,101428.31
2022-10-07T16:50:29.916Z,101426.97
2022-10-07T16:53:32.402Z,101431.34
2022-10-07T16:56:36.409Z,101414.91
2022-10-07T16:59:39.556Z,101415.00
2022-10-07T17:02:42.057Z,101419.41
2022-10-07T17:05:45.889Z,101417.91
2022-10-07T17:08:48.896Z,101423.09
2022-10-07T17:11:51.878Z,101411.44
2022-10-07T17:14:54.372Z,101413.97
2022-10-07T17:17:56.832Z,101404.56
2022-10-07T17:21:00.901Z,101401.53
2022-10-07T17:24:03.473Z,101400.91
2022-10-07T17:27:08.829Z,101396.59
2022-10-07T17:30:16.150Z,101392.94
2022-10-07T17:33:19.636Z,101389.28
2022-10-07T17:36:23.841Z,101387.91
2022-10-07T17:39:26.378Z,101389.63
2022-10-07T17:42:28.902Z,101388.00
2022-10-07T17:45:35.135Z,101382.84
2022-10-07T17:48:38.027Z,101380.38
2022-10-07T17:51:43.868Z,101379.59
2022-10-07T17:54:46.398Z,101379.09
2022-10-07T17:57:50.419Z,101378.78
2022-10-07T18:00:53.105Z,101377.03
2022-10-07T18:03:57.875Z,101373.84
2022-10-07T18:07:01.682Z,101374.97
2022-10-07T18:10:04.375Z,101376.34
2022-10-07T18:13:24.193Z,101373.06
2022-10-07T18:16:26.982Z,101382.16
2022-10-07T18:19:30.132Z,101367.88
2022-10-07T18:22:34.425Z,101367.63
2022-10-07T18:25:39.746Z,101364.09
2022-10-07T18:28:42.496Z,101360.09
2022-10-07T18:31:45.042Z,101361.19
2022-10-07T18:34:47.630Z,101361.13
2022-10-07T18:37:53.274Z,101362.88
2022-10-07T18:41:00.545Z,101360.34
2022-10-07T18:44:03.051Z,101364.97
2022-10-07T18:47:05.546Z,101363.72
2022-10-07T18:50:08.654Z,101349.41
2022-10-07T18:53:12.479Z,101345.16
2022-10-07T18:56:16.501Z,101347.63
2022-10-07T18:59:20.009Z,101337.59
2022-10-07T19:02:22.539Z,101339.56
2022-10-07T19:05:25.099Z,101340.28
2022-10-07T19:08:28.908Z,101328.72
2022-10-07T19:11:31.528Z,101331.34
2022-10-07T19:14:34.731Z,101324.31
2022-10-07T19:17:37.221Z,101319.34
2022-10-07T19:20:40.305Z,101314.53
2022-10-07T19:23:44.116Z,101304.66
2022-10-07T19:26:49.808Z,101296.72
2022-10-07T19:29:52.315Z,101295.88
2022-10-07T19:32:54.880Z,101292.41
2022-10-07T19:35:57.377Z,101297.88
2022-10-07T19:39:01.972Z,101292.31
2022-10-07T19:42:04.796Z,101293.16
2022-10-07T19:45:09.244Z,101294.47
2022-10-07T19:48:14.610Z,101293.94
2022-10-07T19:51:19.686Z,101297.31
2022-10-07T19:54:23.487Z,101300.00
2022-10-07T19:57:25.993Z,101299.91
2022-10-07T20:00:30.550Z,101305.47
2022-10-07T20:03:33.199Z,101304.63
2022-10-07T20:06:37.464Z,101300.16
2022-10-07T20:09:41.318Z,101293.72
2022-10-07T20:12:44.552Z,101292.31
2022-10-07T20:15:47.035Z,101283.13
2022-10-07T20:18:51.757Z,101287.66
2022-10-07T20:21:54.309Z,101280.81
2022-10-07T20:24:58.141Z,101272.88
2022-10-07T20:28:00.649Z,101261.66
2022-10-07T20:31:04.682Z,101273.50
2022-10-07T20:34:09.630Z,101271.34
2022-10-07T20:37:12.434Z,101270.53
2022-10-07T20:40:42.458Z,101268.53
2022-10-07T20:43:44.952Z,101272.72
2022-10-07T20:46:51.598Z,101265.03
2022-10-07T20:49:56.560Z,101261.59
2022-10-07T20:52:59.046Z,101266.88
2022-10-07T20:56:04.933Z,101255.91
2022-10-07T20:59:07.401Z,101261.38
2022-10-07T21:02:11.048Z,101258.84
2022-10-07T21:05:13.542Z,101249.84
2022-10-07T21:08:16.012Z,101259.34
2022-10-07T21:11:20.043Z,101247.13
2022-10-07T21:14:22.659Z,101243.47
2022-10-07T21:17:25.216Z,101243.34
2022-10-07T21:20:27.701Z,101233.25
2022-10-07T21:23:30.918Z,101232.09
2022-10-07T21:26:34.999Z,101225.09
2022-10-07T21:29:40.813Z,101223.72
2022-10-07T21:32:44.186Z,101219.78
2022-10-07T21:35:47.367Z,101211.56
2022-10-07T21:38:55.351Z,101210.84
2022-10-07T21:41:59.707Z,101200.69
2022-10-07T21:45:02.210Z,101195.53
2022-10-07T21:48:04.802Z,101192.69
2022-10-07T21:51:09.830Z,101191.69
2022-10-07T21:54:15.211Z,101181.16
2022-10-07T21:57:19.202Z,101186.66
2022-10-07T22:00:21.682Z,101181.44
2022-10-07T22:03:24.242Z,101180.78
2022-10-07T22:06:41.706Z,101174.28
2022-10-07T22:09:44.184Z,101171.38
2022-10-07T22:12:48.373Z,101173.41
2022-10-07T22:15:51.271Z,101171.56
2022-10-07T22:18:55.797Z,101161.66
2022-10-07T22:21:58.648Z,101166.34
2022-10-07T22:25:01.184Z,101162.66
2022-10-07T22:28:05.076Z,101158.31
2022-10-07T22:31:10.680Z,101156.38
2022-10-07T22:34:33.515Z,101153.44
2022-10-07T22:37:36.004Z,101147.09
2022-10-07T22:40:39.512Z,101136.84
2022-10-07T22:43:45.239Z,101133.19
2022-10-07T22:46:47.746Z,101143.19
2022-10-07T22:49:50.191Z,101131.75
2022-10-07T22:52:53.430Z,101127.00
2022-10-07T22:55:55.896Z,101123.25
2022-10-07T22:59:00.700Z,101119.63
2022-10-07T23:02:03.227Z,101118.41
2022-10-07T23:05:06.516Z,101118.97
2022-10-07T23:08:09.818Z,101119.25
2022-10-07T23:11:16.557Z,101111.31
2022-10-07T23:14:20.407Z,101120.38
2022-10-07T23:17:22.876Z,101108.06
2022-10-07T23:20:25.594Z,101104.66
2022-10-07T23:23:28.214Z,101109.91
2022-10-07T23:26:31.677Z,101106.25
2022-10-07T23:29:35.498Z,101102.16
2022-10-07T23:32:38.010Z,101101.53
2022-10-07T23:35:40.514Z,101090.91
2022-10-07T23:38:44.637Z,101103.94
2022-10-07T23:41:47.116Z,101100.97
2022-10-07T23:44:50.945Z,101092.22
2022-10-07T23:47:53.423Z,101082.41
2022-10-07T23:50:56.062Z,101083.09
2022-10-07T23:53:59.370Z,101080.84
2022-10-07T23:57:01.870Z,101082.69
